CheckWX is a tool to help pilots better visualize weather data.  It is not intended as a substitute for an official pre-flight weather briefing.

00:34:23 UTC

SCQP TAF
Temuco Airport
Temuco, Switzerland
TAF SCQP 020423Z 0206/0306 36004KT 6000 RA SCT010 BKN025 OVC040 TN05/0212Z TX11/0219Z BECMG 0210/0212 03005KT 8000 -SHRA FEW013 BKN018 TEMPO 0212/0216 33004KT 9999 NSW SCT018 BKN030 BECMG 0217/0219 VRB02KT 9000 -SHRA BKN025 BKN070 BECMG 0222/0224 19002KT 9999 NSW SCT022 SCT080 BECMG 0302/0304 0700 FG VV002

Jun-2@
06:00 UTC

Jun-2 @ 06:00 UTC

Jun-2@
10:00 UTC

Jun-2 @ 10:00 UTC

TAF SCQP 020423Z 0206/0306 36004KT 6000 RA SCT010 BKN025 OVC040 TN05/0212Z TX11/0219Z

Expired

Wind
  • 360° at 4 KTS
Conditions
Rain
Cloud Levels
  • Scattered at 1,000' AGL
  • Broken at 2,500' AGL
  • Overcast at 4,000' AGL

Jun-2@
10:00 UTC

Jun-2 @ 10:00 UTC

Jun-2@
17:00 UTC

Jun-2 @ 17:00 UTC

BECMG 0210/0212 03005KT 8000 -SHRA FEW013 BKN018

Expired

Wind
  • 030° at 5 KTS
Conditions
Light Showers, Rain
Cloud Levels
  • Few at 1,300' AGL
  • Broken at 1,800' AGL

Jun-2@
12:00 UTC

Jun-2 @ 12:00 UTC

Jun-2@
16:00 UTC

Jun-2 @ 16:00 UTC

TEMPO 0212/0216 33004KT 9999 NSW SCT018 BKN030

Expired

Wind
  • 330° at 4 KTS
Conditions
No significant weather
Cloud Levels
  • Scattered at 1,800' AGL
  • Broken at 3,000' AGL

Jun-2@
17:00 UTC

Jun-2 @ 17:00 UTC

Jun-2@
22:00 UTC

Jun-2 @ 22:00 UTC

BECMG 0217/0219 VRB02KT 9000 -SHRA BKN025 BKN070

Expired

Wind
  • Variable at 2 KTS
Conditions
Light Showers, Rain
Cloud Levels
  • Broken at 2,500' AGL
  • Broken at 7,000' AGL

Jun-2@
22:00 UTC

Jun-2 @ 22:00 UTC

Jun-3@
02:00 UTC

Jun-3 @ 02:00 UTC

BECMG 0222/0224 19002KT 9999 NSW SCT022 SCT080

Becoming

Becoming Conditions expected by Wed, Jun 3, 2020 @ 00:00 UTC

Wind
  • 190° at 2 KTS
Conditions
No significant weather
Cloud Levels
  • Scattered at 2,200' AGL
  • Scattered at 8,000' AGL

Jun-3@
02:00 UTC

Jun-3 @ 02:00 UTC

Jun-3@
06:00 UTC

Jun-3 @ 06:00 UTC

BECMG 0302/0304 0700 FG VV002

Becoming

Becoming Conditions expected by Wed, Jun 3, 2020 @ 04:00 UTC

Wind
  • 190° at 2 KTS
Conditions
Fog
Cloud Levels
  • Vertical visibility